createdAt,value
2023-04-25T00:00:26.238Z,1.77
2023-04-25T00:02:57.275Z,2.00
2023-04-25T00:05:31.667Z,1.93
2023-04-25T00:08:05.223Z,2.00
2023-04-25T00:10:37.101Z,1.60
2023-04-25T00:13:05.577Z,1.90
2023-04-25T00:15:42.147Z,2.00
2023-04-25T00:18:23.265Z,1.77
2023-04-25T00:20:55.128Z,2.03
2023-04-25T00:23:25.891Z,1.80
2023-04-25T00:25:55.393Z,2.10
2023-04-25T00:28:24.445Z,1.80
2023-04-25T00:30:55.504Z,1.80
2023-04-25T00:33:24.447Z,2.47
2023-04-25T00:36:01.793Z,1.70
2023-04-25T00:38:30.822Z,2.40
2023-04-25T00:41:08.222Z,2.57
2023-04-25T00:43:39.027Z,2.43
2023-04-25T00:46:15.343Z,2.47
2023-04-25T00:48:45.086Z,2.10
2023-04-25T00:51:18.271Z,2.37
2023-04-25T00:53:49.548Z,2.30
2023-04-25T00:56:24.125Z,2.20
2023-04-25T00:58:57.997Z,2.10
2023-04-25T01:01:45.162Z,2.57
2023-04-25T01:04:13.791Z,2.40
2023-04-25T01:07:00.304Z,2.40
2023-04-25T01:09:30.871Z,2.37
2023-04-25T01:12:03.907Z,2.40
2023-04-25T01:14:34.991Z,2.40
2023-04-25T01:17:10.980Z,1.87
2023-04-25T01:19:39.590Z,2.33
2023-04-25T01:22:25.332Z,3.10
2023-04-25T01:24:54.865Z,2.80
2023-04-25T01:27:26.315Z,2.47
2023-04-25T01:29:58.656Z,2.80
2023-04-25T01:32:28.330Z,1.87
2023-04-25T01:34:58.243Z,2.13
2023-04-25T01:37:33.739Z,2.17
2023-04-25T01:40:07.146Z,2.50
2023-04-25T01:42:47.464Z,2.80
2023-04-25T01:45:16.683Z,2.30
2023-04-25T01:47:50.613Z,2.13
2023-04-25T01:50:22.859Z,2.90
2023-04-25T01:52:55.526Z,2.83
2023-04-25T01:55:31.417Z,2.40
2023-04-25T01:58:14.026Z,2.27
2023-04-25T02:01:12.108Z,2.40
2023-04-25T02:03:56.262Z,2.73
2023-04-25T02:06:44.084Z,2.50
2023-04-25T02:09:22.419Z,2.40
2023-04-25T02:11:58.865Z,2.70
2023-04-25T02:14:30.920Z,2.30
2023-04-25T02:17:35.118Z,2.50
2023-04-25T02:20:07.752Z,2.97
2023-04-25T02:22:42.100Z,3.00
2023-04-25T02:25:18.112Z,2.40
2023-04-25T02:27:49.767Z,2.43
2023-04-25T02:30:30.674Z,2.83
2023-04-25T02:33:11.463Z,2.80
2023-04-25T02:35:42.507Z,3.00
2023-04-25T02:38:16.124Z,2.70
2023-04-25T02:40:48.702Z,2.80
2023-04-25T02:43:35.445Z,2.80
2023-04-25T02:46:06.404Z,3.10
2023-04-25T02:48:36.097Z,3.00
2023-04-25T02:51:07.386Z,3.27
2023-04-25T02:53:37.593Z,3.37
2023-04-25T02:56:08.685Z,2.77
2023-04-25T02:58:43.517Z,2.67
2023-04-25T03:01:14.974Z,2.60
2023-04-25T03:03:50.196Z,3.10
2023-04-25T03:06:22.674Z,3.43
2023-04-25T03:08:59.672Z,3.30
2023-04-25T03:11:31.436Z,3.53
2023-04-25T03:14:03.524Z,2.90
2023-04-25T03:16:32.618Z,3.40
2023-04-25T03:19:03.371Z,2.73
2023-04-25T03:21:33.411Z,3.30
2023-04-25T03:24:05.148Z,3.20
2023-04-25T03:26:43.008Z,3.60
2023-04-25T03:29:12.960Z,2.90
2023-04-25T03:31:49.176Z,2.97
2023-04-25T03:34:22.561Z,2.97
2023-04-25T03:37:01.688Z,3.03
2023-04-25T03:39:36.180Z,3.20
2023-04-25T03:42:13.202Z,3.10
2023-04-25T03:44:47.587Z,2.77
2023-04-25T03:47:24.857Z,3.50
2023-04-25T03:49:54.143Z,2.70
2023-04-25T03:52:25.563Z,3.17
2023-04-25T03:54:56.812Z,3.20
2023-04-25T03:57:31.534Z,3.10
2023-04-25T04:00:07.295Z,3.10
2023-04-25T04:02:58.814Z,2.93
2023-04-25T04:05:36.382Z,3.20
2023-04-25T04:08:11.456Z,3.73
2023-04-25T04:10:44.366Z,3.40
2023-04-25T04:13:29.003Z,3.33
2023-04-25T04:16:02.781Z,2.97
2023-04-25T04:18:33.282Z,3.00
2023-04-25T04:21:01.766Z,3.50
2023-04-25T04:23:42.256Z,3.37
2023-04-25T04:26:21.708Z,3.33
2023-04-25T04:29:02.989Z,2.90
2023-04-25T04:32:05.108Z,3.40
2023-04-25T04:34:46.050Z,3.37
2023-04-25T04:37:30.155Z,3.37
2023-04-25T04:40:06.311Z,3.37
2023-04-25T04:43:00.193Z,3.60
2023-04-25T04:46:07.737Z,3.87
2023-04-25T04:49:07.907Z,3.90
2023-04-25T04:51:46.727Z,3.60
2023-04-25T04:54:38.881Z,3.33
2023-04-25T04:57:29.163Z,3.30
2023-04-25T05:00:26.227Z,3.40
2023-04-25T05:03:23.938Z,3.40
2023-04-25T05:06:07.521Z,3.27
2023-04-25T05:09:02.066Z,3.30
2023-04-25T05:11:53.695Z,3.60
2023-04-25T05:14:51.888Z,3.83
2023-04-25T05:17:40.553Z,4.33
2023-04-25T05:20:46.590Z,3.30
2023-04-25T05:23:30.728Z,4.30
2023-04-25T05:26:38.804Z,4.07
2023-04-25T05:29:24.553Z,3.67
2023-04-25T05:32:27.213Z,4.17
2023-04-25T05:35:00.748Z,3.53
2023-04-25T05:37:43.852Z,3.93
2023-04-25T05:40:19.765Z,4.23
2023-04-25T05:42:59.752Z,4.03
2023-04-25T05:45:41.947Z,4.53
2023-04-25T05:48:34.242Z,3.90
2023-04-25T05:51:38.329Z,4.37
2023-04-25T05:54:38.378Z,4.83
2023-04-25T05:57:17.188Z,4.20
2023-04-25T05:59:46.150Z,4.37
2023-04-25T06:02:30.581Z,4.07
2023-04-25T06:05:02.891Z,3.83
2023-04-25T06:07:38.731Z,3.40
2023-04-25T06:10:12.461Z,3.37
2023-04-25T06:12:44.224Z,3.20
2023-04-25T06:15:28.069Z,3.33
2023-04-25T06:18:01.530Z,3.10
2023-04-25T06:20:31.276Z,3.60
2023-04-25T06:23:02.003Z,4.00
2023-04-25T06:26:08.358Z,3.70
2023-04-25T06:28:41.461Z,4.10
2023-04-25T06:31:11.965Z,3.50
2023-04-25T06:33:50.471Z,3.07
2023-04-25T06:36:26.018Z,3.23
2023-04-25T06:39:00.431Z,3.10
2023-04-25T06:41:37.981Z,3.30
2023-04-25T06:44:11.934Z,3.50
2023-04-25T06:46:53.394Z,3.03
2023-04-25T06:49:26.244Z,3.23
2023-04-25T06:51:59.068Z,2.97
2023-04-25T06:54:37.304Z,3.20
2023-04-25T06:57:35.021Z,3.23
2023-04-25T07:00:26.040Z,2.97
2023-04-25T07:02:57.302Z,2.80
2023-04-25T07:05:26.834Z,3.00
2023-04-25T07:07:58.485Z,3.10
2023-04-25T07:10:29.279Z,3.30
2023-04-25T07:13:00.289Z,2.50
2023-04-25T07:15:32.144Z,3.90
2023-04-25T07:18:09.282Z,3.00
2023-04-25T07:20:43.988Z,3.17
2023-04-25T07:23:15.801Z,3.93
2023-04-25T07:25:47.065Z,3.67
2023-04-25T07:28:21.876Z,3.47
2023-04-25T07:30:53.664Z,3.13
2023-04-25T07:33:24.779Z,3.20
2023-04-25T07:35:56.047Z,3.40
2023-04-25T07:38:27.840Z,2.73
2023-04-25T07:40:59.299Z,3.10
2023-04-25T07:43:37.189Z,3.17
2023-04-25T07:46:07.536Z,3.10
2023-04-25T07:48:50.103Z,2.90
2023-04-25T07:51:21.414Z,3.00
2023-04-25T07:53:57.304Z,3.10
2023-04-25T07:56:38.475Z,3.73
2023-04-25T07:59:18.126Z,3.50
2023-04-25T08:01:50.538Z,3.10
2023-04-25T08:04:22.883Z,3.67
2023-04-25T08:06:59.497Z,3.53
2023-04-25T08:09:45.626Z,3.23
2023-04-25T08:12:29.638Z,3.40
2023-04-25T08:15:00.931Z,3.30
2023-04-25T08:17:46.505Z,2.90
2023-04-25T08:20:18.606Z,3.37
2023-04-25T08:22:52.516Z,3.40
2023-04-25T08:25:38.149Z,3.47
2023-04-25T08:28:07.701Z,3.60
2023-04-25T08:30:42.506Z,2.87
2023-04-25T08:33:18.847Z,3.60
2023-04-25T08:36:24.509Z,2.50
2023-04-25T08:39:06.810Z,2.80
2023-04-25T08:41:50.263Z,2.87
2023-04-25T08:44:24.230Z,2.90
2023-04-25T08:46:57.040Z,3.30
2023-04-25T08:49:35.620Z,3.00
2023-04-25T08:52:07.420Z,2.97
2023-04-25T08:54:46.249Z,2.63
2023-04-25T08:57:15.359Z,2.73
2023-04-25T08:59:52.239Z,2.47
2023-04-25T09:02:27.786Z,2.73
2023-04-25T09:04:57.586Z,2.90
2023-04-25T09:07:26.843Z,2.53
2023-04-25T09:10:00.790Z,2.30
2023-04-25T09:12:40.898Z,2.63
2023-04-25T09:18:30.815Z,2.67
2023-04-25T09:21:13.628Z,3.00
2023-04-25T09:23:56.598Z,2.97
2023-04-25T09:26:32.857Z,2.60
2023-04-25T09:29:14.121Z,2.80
2023-04-25T09:31:49.065Z,3.00
2023-04-25T09:34:42.302Z,2.90
2023-04-25T09:37:19.844Z,3.37
2023-04-25T09:40:19.945Z,3.10
2023-04-25T09:43:20.671Z,3.43
2023-04-25T09:45:56.763Z,3.47
2023-04-25T09:48:27.958Z,3.20
2023-04-25T09:51:19.197Z,3.60
2023-04-25T09:53:53.080Z,3.70
2023-04-25T09:57:07.303Z,3.00
2023-04-25T09:59:41.913Z,2.40
2023-04-25T10:02:12.864Z,2.47
2023-04-25T10:04:51.375Z,1.90
2023-04-25T10:07:43.965Z,1.40
2023-04-25T10:10:31.540Z,1.70
2023-04-25T10:13:08.613Z,2.17
2023-04-25T10:15:41.818Z,1.50
2023-04-25T10:18:13.277Z,1.80
2023-04-25T10:20:45.893Z,2.17
2023-04-25T10:23:20.116Z,1.67
2023-04-25T10:25:58.764Z,2.87
2023-04-25T10:28:37.282Z,1.70
2023-04-25T10:31:08.856Z,1.57
2023-04-25T10:33:43.479Z,1.40
2023-04-25T10:36:13.906Z,1.40
2023-04-25T10:38:47.743Z,1.50
2023-04-25T10:41:17.486Z,1.00
2023-04-25T10:43:51.969Z,1.87
2023-04-25T10:46:33.168Z,1.10
2023-04-25T10:49:15.687Z,1.40
2023-04-25T10:51:55.460Z,1.27
2023-04-25T10:54:51.743Z,1.37
2023-04-25T10:57:37.225Z,1.23
2023-04-25T11:00:25.661Z,1.30
2023-04-25T11:03:02.036Z,1.33
2023-04-25T11:05:40.990Z,1.27
2023-04-25T11:08:38.440Z,2.13
2023-04-25T11:11:27.038Z,1.63
2023-04-25T11:13:57.149Z,1.63
2023-04-25T11:16:28.811Z,1.90
2023-04-25T11:19:03.949Z,1.40
2023-04-25T11:21:41.729Z,1.83
2023-04-25T11:24:15.909Z,2.57
2023-04-25T11:26:52.101Z,2.10
2023-04-25T11:29:31.873Z,1.73
2023-04-25T11:32:06.369Z,2.20
2023-04-25T11:34:36.005Z,2.13
2023-04-25T11:37:09.247Z,1.90
2023-04-25T11:39:40.119Z,2.33
2023-04-25T11:42:27.307Z,1.90
2023-04-25T11:45:03.945Z,1.93
2023-04-25T11:47:43.985Z,1.90
2023-04-25T11:50:16.230Z,1.80
2023-04-25T11:52:54.684Z,1.90
2023-04-25T11:55:26.886Z,1.83
2023-04-25T11:58:02.473Z,1.50
2023-04-25T12:00:33.968Z,1.73
2023-04-25T12:03:09.647Z,2.00
2023-04-25T12:05:42.418Z,1.97
2023-04-25T12:08:23.610Z,1.90
2023-04-25T12:10:52.404Z,2.10
2023-04-25T12:13:25.408Z,1.70
2023-04-25T12:16:01.627Z,1.73
2023-04-25T12:18:42.693Z,1.43
2023-04-25T12:21:18.435Z,2.13
2023-04-25T12:23:53.709Z,1.80
2023-04-25T12:26:31.816Z,1.60
2023-04-25T12:29:02.646Z,1.30
2023-04-25T12:31:38.997Z,1.50
2023-04-25T12:34:11.436Z,1.30
2023-04-25T12:36:43.305Z,1.13
2023-04-25T12:39:19.392Z,1.37
2023-04-25T12:41:50.886Z,1.33
2023-04-25T12:44:34.516Z,1.40
2023-04-25T12:47:04.572Z,1.53
2023-04-25T12:49:38.476Z,1.13
2023-04-25T12:52:07.510Z,1.30
2023-04-25T12:54:45.287Z,1.40
2023-04-25T12:57:29.784Z,1.10
2023-04-25T13:00:04.483Z,1.20
2023-04-25T13:02:35.599Z,1.30
2023-04-25T13:05:05.744Z,1.50
2023-04-25T13:07:37.163Z,1.40
2023-04-25T13:10:07.736Z,1.10
2023-04-25T13:12:36.366Z,1.40
2023-04-25T13:15:10.355Z,1.20
2023-04-25T13:17:41.360Z,1.00
2023-04-25T13:20:11.898Z,1.10
2023-04-25T13:22:41.204Z,0.83
2023-04-25T13:25:10.699Z,1.07
2023-04-25T13:27:44.705Z,1.20
2023-04-25T13:30:26.172Z,1.27
2023-04-25T13:32:58.191Z,1.30
2023-04-25T13:35:30.006Z,1.00
2023-04-25T13:37:59.601Z,1.10
2023-04-25T13:40:31.264Z,0.73
2023-04-25T13:43:03.187Z,1.17
2023-04-25T13:45:35.144Z,1.00
2023-04-25T13:48:10.245Z,1.10
2023-04-25T13:50:41.365Z,0.93
2023-04-25T13:53:11.997Z,0.87
2023-04-25T13:55:43.457Z,0.80
2023-04-25T13:58:16.255Z,1.00
2023-04-25T14:00:48.625Z,1.10
2023-04-25T14:03:17.351Z,1.30
2023-04-25T14:05:47.553Z,1.83
2023-04-25T14:08:16.655Z,1.40
2023-04-25T14:10:45.513Z,1.40
2023-04-25T14:13:15.134Z,1.00
2023-04-25T14:15:47.193Z,0.80
2023-04-25T14:18:16.851Z,1.00
2023-04-25T14:20:46.365Z,1.07
2023-04-25T14:23:15.903Z,0.67
2023-04-25T14:25:46.489Z,1.13
2023-04-25T14:28:27.658Z,0.77
2023-04-25T14:31:07.739Z,0.80
2023-04-25T14:33:38.367Z,0.90
2023-04-25T14:36:09.396Z,0.80
2023-04-25T14:38:44.787Z,0.90
2023-04-25T14:41:13.603Z,1.37
2023-04-25T14:43:44.615Z,1.07
2023-04-25T14:46:18.784Z,1.10
2023-04-25T14:48:52.543Z,1.07
2023-04-25T14:51:26.238Z,1.20
2023-04-25T14:53:55.599Z,1.30
2023-04-25T14:56:25.103Z,1.20
2023-04-25T14:58:56.749Z,0.97
2023-04-25T15:01:29.764Z,0.77
2023-04-25T15:03:58.652Z,1.20
2023-04-25T15:06:29.819Z,1.60
2023-04-25T15:08:58.566Z,1.10
2023-04-25T15:11:28.970Z,1.20
2023-04-25T15:14:06.571Z,1.50
2023-04-25T15:16:46.205Z,1.37
2023-04-25T15:19:20.451Z,1.70
2023-04-25T15:21:52.492Z,1.80
2023-04-25T15:24:23.749Z,1.90
2023-04-25T15:26:53.541Z,2.20
2023-04-25T15:29:24.288Z,1.57
2023-04-25T15:31:54.802Z,1.60
2023-04-25T15:34:24.156Z,1.10
2023-04-25T15:36:59.046Z,1.50
2023-04-25T15:39:27.712Z,1.60
2023-04-25T15:41:59.980Z,1.57
2023-04-25T15:44:30.973Z,0.97
2023-04-25T15:47:05.005Z,0.90
2023-04-25T15:49:37.554Z,0.93
2023-04-25T15:52:09.384Z,1.00
2023-04-25T15:54:42.561Z,1.17
2023-04-25T15:57:13.200Z,0.93
2023-04-25T15:59:42.776Z,0.93
2023-04-25T16:02:14.887Z,1.10
2023-04-25T16:04:49.498Z,0.83
2023-04-25T16:07:23.163Z,1.10
2023-04-25T16:09:52.953Z,0.90
2023-04-25T16:12:23.997Z,1.10
2023-04-25T16:14:52.278Z,1.20
2023-04-25T16:17:24.370Z,1.10
2023-04-25T16:19:56.036Z,1.43
2023-04-25T16:22:28.277Z,1.00
2023-04-25T16:24:57.500Z,1.23
2023-04-25T16:27:28.114Z,1.20
2023-04-25T16:29:57.402Z,1.07
2023-04-25T16:32:28.600Z,1.10
2023-04-25T16:34:58.934Z,0.87
2023-04-25T16:37:39.833Z,0.83
2023-04-25T16:40:18.571Z,1.27
2023-04-25T16:42:49.155Z,1.10
2023-04-25T16:45:21.530Z,1.00
2023-04-25T16:48:02.643Z,0.70
2023-04-25T16:50:32.000Z,1.20
2023-04-25T16:53:12.345Z,1.03
2023-04-25T16:55:46.868Z,1.00
2023-04-25T16:58:17.360Z,1.30
2023-04-25T17:00:49.994Z,1.50
2023-04-25T17:03:27.049Z,1.50
2023-04-25T17:06:02.040Z,1.10
2023-04-25T17:08:36.881Z,0.87
2023-04-25T17:11:20.648Z,10.20
2023-04-25T17:13:57.826Z,1.57
2023-04-25T17:16:37.323Z,3.57
2023-04-25T17:19:17.050Z,1.60
2023-04-25T17:21:59.906Z,2.93
2023-04-25T17:24:38.149Z,6.20
2023-04-25T17:27:17.025Z,3.63
2023-04-25T17:29:51.129Z,1.77
2023-04-25T17:32:29.781Z,1.47
2023-04-25T17:35:25.308Z,1.57
2023-04-25T17:38:00.260Z,2.30
2023-04-25T17:40:32.509Z,5.13
2023-04-25T17:43:01.778Z,2.77
2023-04-25T17:45:34.899Z,1.80
2023-04-25T17:48:09.791Z,2.10
2023-04-25T17:50:50.161Z,1.70
2023-04-25T17:53:28.207Z,1.73
2023-04-25T17:56:01.312Z,1.47
2023-04-25T17:58:32.559Z,1.73
2023-04-25T18:01:12.304Z,2.03
2023-04-25T18:03:53.673Z,2.10
2023-04-25T18:06:37.195Z,2.20
2023-04-25T18:09:19.238Z,1.83
2023-04-25T18:11:59.624Z,3.10
2023-04-25T18:14:30.942Z,2.87
2023-04-25T18:17:15.147Z,2.03
2023-04-25T18:20:02.656Z,2.53
2023-04-25T18:22:41.741Z,1.93
2023-04-25T18:25:17.703Z,1.47
2023-04-25T18:27:56.319Z,1.10
2023-04-25T18:30:47.756Z,1.33
2023-04-25T18:33:21.674Z,1.40
2023-04-25T18:35:59.152Z,2.40
2023-04-25T18:38:56.208Z,1.70
2023-04-25T18:41:53.575Z,1.70
2023-04-25T18:44:32.921Z,1.13
2023-04-25T18:47:19.172Z,1.50
2023-04-25T18:49:52.089Z,1.27
2023-04-25T18:52:29.190Z,1.23
2023-04-25T18:55:18.847Z,1.30
2023-04-25T18:57:54.704Z,1.00
2023-04-25T19:00:34.195Z,2.00
2023-04-25T19:03:11.271Z,2.30
2023-04-25T19:05:43.217Z,1.80
2023-04-25T19:08:24.867Z,1.57
2023-04-25T19:11:17.999Z,1.83
2023-04-25T19:14:05.693Z,2.03
2023-04-25T19:16:47.522Z,2.30
2023-04-25T19:19:24.678Z,2.00
2023-04-25T19:22:03.468Z,1.40
2023-04-25T19:27:30.960Z,1.17
2023-04-25T19:30:12.118Z,1.70
2023-04-25T19:32:50.170Z,1.63
2023-04-25T19:35:22.332Z,1.60
2023-04-25T19:38:04.888Z,1.17
2023-04-25T19:40:45.241Z,1.33
2023-04-25T19:43:22.740Z,1.27
2023-04-25T19:45:52.406Z,1.37
2023-04-25T19:48:30.502Z,2.13
2023-04-25T19:51:07.479Z,9.23
2023-04-25T19:53:49.126Z,2.20
2023-04-25T19:56:28.446Z,2.93
2023-04-25T19:59:10.427Z,1.93
2023-04-25T20:01:46.428Z,2.00
2023-04-25T20:04:24.595Z,1.40
2023-04-25T20:06:56.451Z,1.30
2023-04-25T20:09:35.770Z,1.97
2023-04-25T20:12:18.622Z,1.90
2023-04-25T20:15:02.246Z,1.40
2023-04-25T20:17:42.668Z,1.63
2023-04-25T20:20:28.900Z,1.80
2023-04-25T20:23:00.187Z,1.53
2023-04-25T20:25:43.979Z,2.00
2023-04-25T20:28:19.148Z,3.00
2023-04-25T20:30:56.349Z,2.00
2023-04-25T20:33:37.861Z,1.97
2023-04-25T20:36:11.084Z,2.00
2023-04-25T20:38:48.005Z,1.80
2023-04-25T20:41:17.815Z,2.03
2023-04-25T20:43:53.505Z,3.20
2023-04-25T20:46:23.824Z,2.00
2023-04-25T20:48:54.576Z,2.17
2023-04-25T20:51:25.177Z,2.00
2023-04-25T20:53:57.641Z,1.57
2023-04-25T20:56:36.706Z,2.00
2023-04-25T20:59:16.067Z,1.90
2023-04-25T21:01:57.367Z,2.20
2023-04-25T21:04:26.535Z,1.93
2023-04-25T21:07:08.044Z,1.83
2023-04-25T21:09:45.850Z,2.70
2023-04-25T21:12:17.586Z,2.73
2023-04-25T21:14:57.428Z,2.40
2023-04-25T21:17:28.698Z,2.47
2023-04-25T21:20:07.435Z,1.90
2023-04-25T21:22:44.393Z,2.20
2023-04-25T21:25:20.426Z,1.93
2023-04-25T21:27:57.177Z,2.00
2023-04-25T21:30:34.113Z,2.03
2023-04-25T21:33:06.538Z,2.10
2023-04-25T21:35:41.059Z,1.80
2023-04-25T21:38:11.614Z,1.97
2023-04-25T21:40:43.608Z,2.10
2023-04-25T21:43:17.591Z,1.90
2023-04-25T21:46:14.782Z,2.40
2023-04-25T21:48:40.106Z,3.20
2023-04-25T21:51:08.472Z,2.17
2023-04-25T21:53:37.704Z,2.63
2023-04-25T21:56:08.459Z,3.20
2023-04-25T21:58:47.078Z,2.50
2023-04-25T22:01:23.508Z,2.37
2023-04-25T22:04:06.850Z,2.60
2023-04-25T22:06:50.855Z,2.83
2023-04-25T22:09:22.205Z,2.20
2023-04-25T22:11:53.506Z,2.60
2023-04-25T22:14:24.382Z,2.87
2023-04-25T22:16:56.813Z,3.17
2023-04-25T22:19:33.857Z,2.67
2023-04-25T22:22:05.376Z,2.80
2023-04-25T22:24:34.919Z,3.37
2023-04-25T22:27:09.564Z,3.43
2023-04-25T22:29:41.811Z,3.80
2023-04-25T22:32:11.136Z,3.97
2023-04-25T22:34:46.333Z,3.90
2023-04-25T22:37:16.778Z,3.70
2023-04-25T22:39:46.111Z,3.43
2023-04-25T22:42:14.987Z,3.67
2023-04-25T22:44:57.300Z,3.80
2023-04-25T22:47:36.858Z,4.17
2023-04-25T22:50:12.318Z,4.10
2023-04-25T22:52:42.606Z,3.70
2023-04-25T22:55:22.378Z,3.67
2023-04-25T22:58:00.448Z,3.37
2023-04-25T23:00:39.908Z,4.07
2023-04-25T23:03:08.557Z,3.47
2023-04-25T23:05:47.663Z,3.80
2023-04-25T23:08:19.513Z,3.70
2023-04-25T23:10:53.551Z,4.63
2023-04-25T23:13:23.323Z,4.30
2023-04-25T23:16:02.140Z,4.40
2023-04-25T23:18:45.096Z,4.00
2023-04-25T23:21:17.118Z,4.00
2023-04-25T23:23:46.883Z,5.03
2023-04-25T23:26:17.631Z,4.27
2023-04-25T23:28:55.477Z,4.43
2023-04-25T23:31:29.843Z,5.30
2023-04-25T23:34:06.232Z,4.87
2023-04-25T23:36:39.404Z,4.57
2023-04-25T23:39:14.458Z,5.30
2023-04-25T23:41:50.544Z,4.90
2023-04-25T23:44:20.342Z,5.00
2023-04-25T23:46:55.710Z,6.20
2023-04-25T23:49:25.996Z,6.00
2023-04-25T23:51:57.917Z,5.93
2023-04-25T23:54:26.744Z,5.53
2023-04-25T23:56:58.381Z,5.50
2023-04-25T23:59:34.403Z,6.10
